createdAt,value
2022-08-20T00:01:27.095Z,57.67
2022-08-20T00:03:36.283Z,57.75
2022-08-20T00:05:42.797Z,57.62
2022-08-20T00:07:45.443Z,57.87
2022-08-20T00:09:48.142Z,58.07
2022-08-20T00:11:50.759Z,57.76
2022-08-20T00:13:57.162Z,57.76
2022-08-20T00:16:00.194Z,57.83
2022-08-20T00:18:03.903Z,57.95
2022-08-20T00:20:10.073Z,57.97
2022-08-20T00:22:13.758Z,58.06
2022-08-20T00:24:16.858Z,57.91
2022-08-20T00:26:20.770Z,58.00
2022-08-20T00:28:23.405Z,58.23
2022-08-20T00:30:27.231Z,58.40
2022-08-20T00:32:29.850Z,58.11
2022-08-20T00:34:32.658Z,58.42
2022-08-20T00:36:35.325Z,58.64
2022-08-20T00:38:40.162Z,58.92
2022-08-20T00:40:52.565Z,58.96
2022-08-20T00:42:59.503Z,59.05
2022-08-20T00:45:02.279Z,59.41
2022-08-20T00:47:06.405Z,59.42
2022-08-20T00:49:15.223Z,59.79
2022-08-20T00:51:17.919Z,60.00
2022-08-20T00:53:23.831Z,59.88
2022-08-20T00:55:31.456Z,60.20
2022-08-20T00:57:43.808Z,60.39
2022-08-20T01:00:09.809Z,60.22
2022-08-20T01:02:16.371Z,60.71
2022-08-20T01:04:19.459Z,60.87
2022-08-20T01:06:22.763Z,60.82
2022-08-20T01:08:26.954Z,60.85
2022-08-20T01:10:35.222Z,61.15
2022-08-20T01:12:41.095Z,61.31
2022-08-20T01:14:46.388Z,61.28
2022-08-20T01:16:53.343Z,61.28
2022-08-20T01:18:57.862Z,61.50
2022-08-20T01:21:04.312Z,61.25
2022-08-20T01:23:27.848Z,61.73
2022-08-20T01:25:41.760Z,61.58
2022-08-20T01:27:46.363Z,61.44
2022-08-20T01:29:54.102Z,61.30
2022-08-20T01:32:01.574Z,61.21
2022-08-20T01:34:08.377Z,60.88
2022-08-20T01:36:12.849Z,60.87
2022-08-20T01:38:15.455Z,60.92
2022-08-20T01:40:27.946Z,61.21
2022-08-20T01:42:58.992Z,61.56
2022-08-20T01:45:04.376Z,61.88
2022-08-20T01:47:17.920Z,62.29
2022-08-20T01:49:25.921Z,62.59
2022-08-20T01:51:30.913Z,63.20
2022-08-20T01:53:41.723Z,63.56
2022-08-20T01:55:44.611Z,64.38
2022-08-20T01:57:48.594Z,64.76
2022-08-20T01:59:51.528Z,65.12
2022-08-20T02:01:54.896Z,65.59
2022-08-20T02:03:57.682Z,65.62
2022-08-20T02:06:01.496Z,65.78
2022-08-20T02:08:05.636Z,65.70
2022-08-20T02:10:11.938Z,66.48
2022-08-20T02:12:14.881Z,66.60
2022-08-20T02:14:17.621Z,66.07
2022-08-20T02:16:29.345Z,66.01
2022-08-20T02:18:32.094Z,65.60
2022-08-20T02:20:34.928Z,64.88
2022-08-20T02:22:55.127Z,64.45
2022-08-20T02:24:57.963Z,64.25
2022-08-20T02:27:00.708Z,64.27
2022-08-20T02:29:06.071Z,63.75
2022-08-20T02:31:08.825Z,63.96
2022-08-20T02:33:14.811Z,63.67
2022-08-20T02:35:19.407Z,63.57
2022-08-20T02:37:22.046Z,63.56
2022-08-20T02:39:25.961Z,63.46
2022-08-20T02:41:29.867Z,63.92
2022-08-20T02:43:32.512Z,63.39
2022-08-20T02:45:37.498Z,63.26
2022-08-20T02:47:40.238Z,63.16
2022-08-20T02:49:43.137Z,63.01
2022-08-20T02:51:46.501Z,63.56
2022-08-20T02:53:49.191Z,63.16
2022-08-20T02:55:52.060Z,63.29
2022-08-20T02:58:00.271Z,63.55
2022-08-20T03:00:15.164Z,63.84
2022-08-20T03:02:18.103Z,63.60
2022-08-20T03:04:20.820Z,63.40
2022-08-20T03:06:28.713Z,63.35
2022-08-20T03:08:31.495Z,63.32
2022-08-20T03:10:36.255Z,62.55
2022-08-20T03:12:39.135Z,62.47
2022-08-20T03:14:41.826Z,62.81
2022-08-20T03:16:44.473Z,62.53
2022-08-20T03:18:48.283Z,62.33
2022-08-20T03:20:54.787Z,61.73
2022-08-20T03:22:57.952Z,61.12
2022-08-20T03:25:00.524Z,61.05
2022-08-20T03:27:03.199Z,60.68
2022-08-20T03:29:05.924Z,60.62
2022-08-20T03:31:09.006Z,60.10
2022-08-20T03:33:11.927Z,60.26
2022-08-20T03:35:16.707Z,60.00
2022-08-20T03:37:19.526Z,59.15
2022-08-20T03:39:22.210Z,59.38
2022-08-20T03:41:25.625Z,59.29
2022-08-20T03:43:28.767Z,59.72
2022-08-20T03:45:32.675Z,58.99
2022-08-20T03:47:36.095Z,59.04
2022-08-20T03:49:38.760Z,59.10
2022-08-20T03:51:57.758Z,59.44
2022-08-20T03:54:00.984Z,59.26
2022-08-20T03:56:06.374Z,60.65
2022-08-20T03:58:10.416Z,60.48
2022-08-20T04:00:15.680Z,60.37
2022-08-20T04:02:18.731Z,59.32
2022-08-20T04:04:22.274Z,60.34
2022-08-20T04:06:25.818Z,60.69
2022-08-20T04:08:29.979Z,59.65
2022-08-20T04:10:32.790Z,60.32
2022-08-20T04:12:37.601Z,60.24
2022-08-20T04:14:40.526Z,60.19
2022-08-20T04:16:43.996Z,59.77
2022-08-20T04:19:01.601Z,58.94
2022-08-20T04:21:06.106Z,58.54
2022-08-20T04:23:09.515Z,59.13
2022-08-20T04:25:15.977Z,59.00
2022-08-20T04:27:20.465Z,59.59
2022-08-20T04:29:26.100Z,58.62
2022-08-20T04:31:35.072Z,58.57
2022-08-20T04:33:37.726Z,58.63
2022-08-20T04:35:40.388Z,57.51
2022-08-20T04:37:43.311Z,58.31
2022-08-20T04:39:45.983Z,58.78
2022-08-20T04:41:48.986Z,58.74
2022-08-20T04:43:56.724Z,58.18
2022-08-20T04:46:02.363Z,57.20
2022-08-20T04:48:07.525Z,55.79
2022-08-20T04:50:13.812Z,56.27
2022-08-20T04:52:16.457Z,56.35
2022-08-20T04:54:19.186Z,56.00
2022-08-20T04:56:28.449Z,55.52
2022-08-20T04:58:34.758Z,55.15
2022-08-20T05:00:37.959Z,54.51
2022-08-20T05:02:40.940Z,54.91
2022-08-20T05:04:43.579Z,54.87
2022-08-20T05:06:46.201Z,54.02
2022-08-20T05:08:48.915Z,53.62
2022-08-20T05:10:56.036Z,53.55
2022-08-20T05:13:16.667Z,53.33
2022-08-20T05:15:20.100Z,53.43
2022-08-20T05:17:24.005Z,53.27
2022-08-20T05:19:29.150Z,51.65
2022-08-20T05:21:31.800Z,51.09
2022-08-20T05:23:36.869Z,50.15
2022-08-20T05:25:42.112Z,49.17
2022-08-20T05:27:47.723Z,49.97
2022-08-20T05:29:52.228Z,49.05
2022-08-20T05:31:56.822Z,48.55
2022-08-20T05:33:59.579Z,48.31
2022-08-20T05:36:02.686Z,49.07
2022-08-20T05:38:11.912Z,48.68
2022-08-20T05:40:15.008Z,48.28
2022-08-20T05:42:17.876Z,47.48
2022-08-20T05:44:20.940Z,47.61
2022-08-20T05:46:23.534Z,47.02
2022-08-20T05:48:26.284Z,46.38
2022-08-20T05:50:28.905Z,46.62
2022-08-20T05:52:31.555Z,46.36
2022-08-20T05:54:34.311Z,46.95
2022-08-20T05:56:37.432Z,46.86
2022-08-20T05:58:40.171Z,47.02
2022-08-20T06:00:42.912Z,46.69
2022-08-20T06:03:04.168Z,46.96
2022-08-20T06:05:07.029Z,46.85
2022-08-20T06:07:12.225Z,45.00
2022-08-20T06:09:31.017Z,46.60
2022-08-20T06:11:37.171Z,45.57
2022-08-20T06:13:40.177Z,45.25
2022-08-20T06:15:42.902Z,46.77
2022-08-20T06:17:45.993Z,45.16
2022-08-20T06:20:05.791Z,44.01
2022-08-20T06:22:17.900Z,45.82
2022-08-20T06:24:27.131Z,45.62
2022-08-20T06:26:31.113Z,43.56
2022-08-20T06:28:33.908Z,42.47
2022-08-20T06:30:37.314Z,42.90
2022-08-20T06:32:40.325Z,42.33
2022-08-20T06:34:49.957Z,42.74
2022-08-20T06:36:54.927Z,44.32
2022-08-20T06:38:58.545Z,42.44
2022-08-20T06:41:01.265Z,41.18
2022-08-20T06:43:04.250Z,40.92
2022-08-20T06:45:07.332Z,40.47
2022-08-20T06:47:09.950Z,40.02
2022-08-20T06:49:13.216Z,38.36
2022-08-20T06:51:15.949Z,40.62
2022-08-20T06:53:21.014Z,39.36
2022-08-20T06:55:24.173Z,39.25
2022-08-20T06:57:27.566Z,37.94
2022-08-20T06:59:30.270Z,38.83
2022-08-20T07:01:33.357Z,38.92
2022-08-20T07:03:38.472Z,39.19
2022-08-20T07:05:44.038Z,37.00
2022-08-20T07:07:51.314Z,37.19
2022-08-20T07:10:09.291Z,35.87
2022-08-20T07:12:14.368Z,37.26
2022-08-20T07:14:18.549Z,37.39
2022-08-20T07:16:21.127Z,38.21
2022-08-20T07:18:28.157Z,37.31
2022-08-20T07:20:34.722Z,37.56
2022-08-20T07:22:37.584Z,37.96
2022-08-20T07:24:42.010Z,38.46
2022-08-20T07:26:46.193Z,38.52
2022-08-20T07:28:49.286Z,37.13
2022-08-20T07:31:13.844Z,37.24
2022-08-20T07:33:18.944Z,37.26
2022-08-20T07:35:27.369Z,37.25
2022-08-20T07:37:30.226Z,37.40
2022-08-20T07:39:32.793Z,37.25
2022-08-20T07:41:35.845Z,38.89
2022-08-20T07:43:39.658Z,38.83
2022-08-20T07:45:47.998Z,40.84
2022-08-20T07:47:56.151Z,38.47
2022-08-20T07:49:59.004Z,39.19
2022-08-20T07:52:01.656Z,39.56
2022-08-20T07:54:06.775Z,38.71
2022-08-20T07:56:13.214Z,38.58
2022-08-20T07:58:20.022Z,38.89
2022-08-20T08:00:24.175Z,38.22
2022-08-20T08:02:28.419Z,37.94
2022-08-20T08:04:32.049Z,37.38
2022-08-20T08:06:36.868Z,38.11
2022-08-20T08:08:41.203Z,38.64
2022-08-20T08:10:46.357Z,36.70
2022-08-20T08:12:53.008Z,36.84
2022-08-20T08:14:56.584Z,36.51
2022-08-20T08:17:03.593Z,36.69
2022-08-20T08:19:09.841Z,36.56
2022-08-20T08:21:16.639Z,36.94
2022-08-20T08:23:24.869Z,37.71
2022-08-20T08:25:35.248Z,36.22
2022-08-20T08:27:38.324Z,36.29
2022-08-20T08:29:41.102Z,36.60
2022-08-20T08:31:43.811Z,35.53
2022-08-20T08:33:46.668Z,34.55
2022-08-20T08:35:49.257Z,33.88
2022-08-20T08:37:51.974Z,33.47
2022-08-20T08:39:54.709Z,33.60
2022-08-20T08:41:59.149Z,34.09
2022-08-20T08:44:06.172Z,34.49
2022-08-20T08:46:11.944Z,33.45
2022-08-20T08:48:18.772Z,33.40
2022-08-20T08:50:52.879Z,32.86
2022-08-20T08:52:59.630Z,34.25
2022-08-20T08:55:05.772Z,33.10
2022-08-20T08:57:10.923Z,33.81
2022-08-20T08:59:13.682Z,32.80
2022-08-20T09:01:54.416Z,33.47
2022-08-20T09:03:49.134Z,33.10
2022-08-20T09:05:58.739Z,33.45
2022-08-20T09:08:03.617Z,33.79
2022-08-20T09:10:07.358Z,33.21
2022-08-20T09:12:19.053Z,32.78
2022-08-20T09:14:25.112Z,32.74
2022-08-20T09:16:33.130Z,31.73
2022-08-20T09:18:52.282Z,31.31
2022-08-20T09:20:55.449Z,31.49
2022-08-20T09:22:58.258Z,32.25
2022-08-20T09:25:02.862Z,31.57
2022-08-20T09:27:06.665Z,31.62
2022-08-20T09:29:10.165Z,32.29
2022-08-20T09:31:12.798Z,32.46
2022-08-20T09:33:17.653Z,31.96
2022-08-20T09:35:20.272Z,32.03
2022-08-20T09:37:24.796Z,31.68
2022-08-20T09:39:27.359Z,31.33
2022-08-20T09:41:33.665Z,31.64
2022-08-20T09:43:38.440Z,31.22
2022-08-20T09:45:41.130Z,30.98
2022-08-20T09:47:54.688Z,31.73
2022-08-20T09:49:59.435Z,32.16
2022-08-20T09:52:02.957Z,30.98
2022-08-20T09:54:05.950Z,31.37
2022-08-20T09:56:09.422Z,30.67
2022-08-20T09:58:23.805Z,30.76
2022-08-20T10:00:26.461Z,30.59
2022-08-20T10:02:29.081Z,31.17
2022-08-20T10:04:31.694Z,29.74
2022-08-20T10:06:39.941Z,29.43
2022-08-20T10:08:43.578Z,31.77
2022-08-20T10:10:46.268Z,32.24
2022-08-20T10:12:52.801Z,30.86
2022-08-20T10:14:57.597Z,30.57
2022-08-20T10:17:01.818Z,30.43
2022-08-20T10:19:05.830Z,31.46
2022-08-20T10:21:12.420Z,30.57
2022-08-20T10:23:15.060Z,31.01
2022-08-20T10:25:18.059Z,30.63
2022-08-20T10:27:20.778Z,30.21
2022-08-20T10:29:23.547Z,29.85
2022-08-20T10:31:26.177Z,30.08
2022-08-20T10:33:28.722Z,29.81
2022-08-20T10:35:31.286Z,29.77
2022-08-20T10:37:34.945Z,29.87
2022-08-20T10:39:37.606Z,30.01
2022-08-20T10:41:40.665Z,29.49
2022-08-20T10:43:43.322Z,30.04
2022-08-20T10:45:45.936Z,30.22
2022-08-20T10:47:48.781Z,29.76
2022-08-20T10:49:53.531Z,30.62
2022-08-20T10:51:56.750Z,30.95
2022-08-20T10:54:00.242Z,29.90
2022-08-20T10:56:03.114Z,29.10
2022-08-20T10:58:07.224Z,28.85
2022-08-20T11:00:17.822Z,29.24
2022-08-20T11:02:21.281Z,28.96
2022-08-20T11:04:24.128Z,28.76
2022-08-20T11:06:26.856Z,27.98
2022-08-20T11:08:34.460Z,28.23
2022-08-20T11:10:39.392Z,28.30
2022-08-20T11:12:44.831Z,28.26
2022-08-20T11:14:50.535Z,28.12
2022-08-20T11:16:53.375Z,27.71
2022-08-20T11:18:56.019Z,28.25
2022-08-20T11:20:58.904Z,27.38
2022-08-20T11:23:01.572Z,26.52
2022-08-20T11:25:06.302Z,27.14
2022-08-20T11:27:09.707Z,27.03
2022-08-20T11:29:12.432Z,26.76
2022-08-20T11:31:15.182Z,26.39
2022-08-20T11:33:17.740Z,26.12
2022-08-20T11:35:42.296Z,25.95
2022-08-20T11:37:47.992Z,26.36
2022-08-20T11:39:51.099Z,26.06
2022-08-20T11:41:55.432Z,26.76
2022-08-20T11:44:20.221Z,26.54
2022-08-20T11:46:23.435Z,26.51
2022-08-20T11:48:29.257Z,25.79
2022-08-20T11:50:32.080Z,25.88
2022-08-20T11:52:35.341Z,25.06
2022-08-20T11:54:40.723Z,25.52
2022-08-20T11:56:45.979Z,26.96
2022-08-20T11:58:48.777Z,25.83
2022-08-20T12:00:51.541Z,24.48
2022-08-20T12:02:54.272Z,24.58
2022-08-20T12:04:58.474Z,24.42
2022-08-20T12:07:10.455Z,24.51
2022-08-20T12:09:13.374Z,24.64
2022-08-20T12:11:15.970Z,24.09
2022-08-20T12:13:18.576Z,25.33
2022-08-20T12:15:23.352Z,23.42
2022-08-20T12:17:29.826Z,23.72
2022-08-20T12:19:32.402Z,23.57
2022-08-20T12:21:35.103Z,23.37
2022-08-20T12:23:46.379Z,23.71
2022-08-20T12:25:50.384Z,23.60
2022-08-20T12:27:53.147Z,23.40
2022-08-20T12:29:58.103Z,23.40
2022-08-20T12:32:00.709Z,23.61
2022-08-20T12:34:03.344Z,23.86
2022-08-20T12:36:06.247Z,23.49
2022-08-20T12:38:08.962Z,22.80
2022-08-20T12:40:24.420Z,21.37
2022-08-20T12:42:35.566Z,22.84
2022-08-20T12:44:39.070Z,22.60
2022-08-20T12:46:41.629Z,23.42
2022-08-20T12:48:44.253Z,23.05
2022-08-20T12:50:47.110Z,21.59
2022-08-20T12:52:50.610Z,21.41
2022-08-20T12:54:54.568Z,22.22
2022-08-20T12:56:57.709Z,21.78
2022-08-20T12:59:00.293Z,21.51
2022-08-20T13:01:02.955Z,21.35
2022-08-20T13:03:07.162Z,20.98
2022-08-20T13:05:11.541Z,21.16
2022-08-20T13:07:14.783Z,21.21
2022-08-20T13:09:18.702Z,21.46
2022-08-20T13:11:21.351Z,20.49
2022-08-20T13:13:23.883Z,20.07
2022-08-20T13:15:26.545Z,20.45
2022-08-20T13:17:38.710Z,20.32
2022-08-20T13:19:42.073Z,20.33
2022-08-20T13:21:44.664Z,20.61
2022-08-20T13:23:57.664Z,19.22
2022-08-20T13:26:00.254Z,19.60
2022-08-20T13:28:04.878Z,19.13
2022-08-20T13:30:09.273Z,18.78
2022-08-20T13:32:11.876Z,19.56
2022-08-20T13:34:14.505Z,19.76
2022-08-20T13:36:17.132Z,20.05
2022-08-20T13:38:20.043Z,19.46
2022-08-20T13:40:22.775Z,21.25
2022-08-20T13:42:27.042Z,19.83
2022-08-20T13:44:33.212Z,18.61
2022-08-20T13:46:36.144Z,20.43
2022-08-20T13:48:38.758Z,19.71
2022-08-20T13:50:41.478Z,19.19
2022-08-20T13:52:46.010Z,19.99
2022-08-20T13:54:48.778Z,20.05
2022-08-20T13:56:51.375Z,19.46
2022-08-20T13:58:54.040Z,18.93
2022-08-20T14:00:56.921Z,19.83
2022-08-20T14:03:04.322Z,19.66
2022-08-20T14:05:07.717Z,19.33
2022-08-20T14:07:32.304Z,18.83
2022-08-20T14:09:38.452Z,19.28
2022-08-20T14:11:41.035Z,18.83
2022-08-20T14:13:43.769Z,18.67
2022-08-20T14:15:46.501Z,19.42
2022-08-20T14:17:52.467Z,19.34
2022-08-20T14:20:01.164Z,19.13
2022-08-20T14:22:06.421Z,19.44
2022-08-20T14:24:09.117Z,19.36
2022-08-20T14:26:11.785Z,19.02
2022-08-20T14:28:18.461Z,19.62
2022-08-20T14:30:28.353Z,19.86
2022-08-20T14:32:31.140Z,19.23
2022-08-20T14:34:34.974Z,19.21
2022-08-20T14:36:37.638Z,18.66
2022-08-20T14:38:45.187Z,18.99
2022-08-20T14:40:48.603Z,19.46
2022-08-20T14:42:51.967Z,18.60
2022-08-20T14:44:56.242Z,18.90
2022-08-20T14:47:11.182Z,18.88
2022-08-20T14:49:13.838Z,18.93
2022-08-20T14:51:16.985Z,19.17
2022-08-20T14:53:19.786Z,19.43
2022-08-20T14:55:25.477Z,20.03
2022-08-20T14:57:28.127Z,19.33
2022-08-20T14:59:30.904Z,19.51
2022-08-20T15:01:33.604Z,19.61
2022-08-20T15:03:36.238Z,20.06
2022-08-20T15:05:40.761Z,19.87
2022-08-20T15:07:46.436Z,20.64
2022-08-20T15:09:50.239Z,20.58
2022-08-20T15:11:52.801Z,21.60
2022-08-20T15:13:55.362Z,22.16
2022-08-20T15:15:58.057Z,22.54
2022-08-20T15:18:00.802Z,23.87
2022-08-20T15:20:19.877Z,22.69
2022-08-20T15:22:23.981Z,24.55
2022-08-20T15:24:26.547Z,24.89
2022-08-20T15:26:29.786Z,24.74
2022-08-20T15:28:32.426Z,24.87
2022-08-20T15:30:36.538Z,24.38
2022-08-20T15:32:39.407Z,24.71
2022-08-20T15:34:42.525Z,25.13
2022-08-20T15:36:45.383Z,25.60
2022-08-20T15:38:48.146Z,25.41
2022-08-20T15:40:50.741Z,26.70
2022-08-20T15:42:53.506Z,28.21
2022-08-20T15:44:56.194Z,26.31
2022-08-20T15:47:16.861Z,26.35
2022-08-20T15:49:19.522Z,26.25
2022-08-20T15:51:38.280Z,27.93
2022-08-20T15:53:47.030Z,27.95
2022-08-20T15:56:03.115Z,27.81
2022-08-20T15:58:14.233Z,28.49
2022-08-20T16:00:23.914Z,29.06
2022-08-20T16:02:41.655Z,29.03
2022-08-20T16:04:55.986Z,28.69
2022-08-20T16:07:06.165Z,28.94
2022-08-20T16:09:54.836Z,31.25
2022-08-20T16:12:08.162Z,29.63
2022-08-20T16:14:24.776Z,29.38
2022-08-20T16:16:30.040Z,29.13
2022-08-20T16:18:38.198Z,28.51
2022-08-20T16:20:52.841Z,32.13
2022-08-20T16:22:56.311Z,31.56
2022-08-20T16:24:59.741Z,31.46
2022-08-20T16:27:41.016Z,32.01
2022-08-20T16:30:00.414Z,31.90
2022-08-20T16:32:09.221Z,33.07
2022-08-20T16:34:33.981Z,34.27
2022-08-20T16:36:48.802Z,33.59
2022-08-20T16:39:12.043Z,33.27
2022-08-20T16:41:40.104Z,32.79
2022-08-20T16:43:56.621Z,33.23
2022-08-20T16:46:03.838Z,33.37
2022-08-20T16:48:08.602Z,33.70
2022-08-20T16:50:25.900Z,34.57
2022-08-20T16:52:28.522Z,33.57
2022-08-20T16:54:31.523Z,33.91
2022-08-20T16:56:40.723Z,33.76
2022-08-20T16:58:45.450Z,33.74
2022-08-20T17:00:48.195Z,33.36
2022-08-20T17:03:03.059Z,34.64
2022-08-20T17:05:06.768Z,34.22
2022-08-20T17:07:11.722Z,34.08
2022-08-20T17:09:31.950Z,33.81
2022-08-20T17:11:36.643Z,34.49
2022-08-20T17:13:43.515Z,33.60
2022-08-20T17:16:16.388Z,34.44
2022-08-20T17:18:29.819Z,34.88
2022-08-20T17:20:45.096Z,36.67
2022-08-20T17:22:55.196Z,35.82
2022-08-20T17:24:58.436Z,35.56
2022-08-20T17:27:10.097Z,36.45
2022-08-20T17:29:25.766Z,37.06
2022-08-20T17:31:38.807Z,37.60
2022-08-20T17:33:42.566Z,37.71
2022-08-20T17:35:54.650Z,38.51
2022-08-20T17:38:00.107Z,38.57
2022-08-20T17:40:33.965Z,38.35
2022-08-20T17:42:58.851Z,38.63
2022-08-20T17:45:21.344Z,38.66
2022-08-20T17:47:32.408Z,38.96
2022-08-20T17:50:02.372Z,39.12
2022-08-20T17:52:30.332Z,39.14
2022-08-20T17:54:39.456Z,38.60
2022-08-20T17:56:44.258Z,38.81
2022-08-20T18:00:00.212Z,38.56
2022-08-20T18:01:47.404Z,38.79
2022-08-20T18:03:52.280Z,39.44
2022-08-20T18:06:01.629Z,39.58
2022-08-20T18:08:20.367Z,40.11
2022-08-20T18:10:26.437Z,39.75
2022-08-20T18:12:41.749Z,39.67
2022-08-20T18:14:59.829Z,39.83
2022-08-20T18:17:43.817Z,38.90
2022-08-20T18:19:52.418Z,38.81
2022-08-20T18:22:20.258Z,39.72
2022-08-20T18:24:39.063Z,39.82
2022-08-20T18:26:54.250Z,40.14
2022-08-20T18:29:34.308Z,40.32
2022-08-20T18:31:55.550Z,39.91
2022-08-20T18:33:58.729Z,38.79
2022-08-20T18:36:34.605Z,40.21
2022-08-20T18:38:42.095Z,39.48
2022-08-20T18:40:44.787Z,39.27
2022-08-20T18:42:47.729Z,39.72
2022-08-20T18:44:52.769Z,40.02
2022-08-20T18:46:59.434Z,39.83
2022-08-20T18:49:06.209Z,40.02
2022-08-20T18:51:11.811Z,40.53
2022-08-20T18:53:34.435Z,40.93
2022-08-20T18:55:59.402Z,40.74
2022-08-20T18:58:07.076Z,40.43
2022-08-20T19:00:14.625Z,40.58
2022-08-20T19:02:25.176Z,41.25
2022-08-20T19:04:32.124Z,41.00
2022-08-20T19:06:53.289Z,41.16
2022-08-20T19:09:20.279Z,41.41
2022-08-20T19:12:05.037Z,41.86
2022-08-20T19:14:59.110Z,41.97
2022-08-20T19:17:16.862Z,42.07
2022-08-20T19:19:24.535Z,42.09
2022-08-20T19:21:35.751Z,41.99
2022-08-20T19:23:41.627Z,41.97
2022-08-20T19:26:03.483Z,41.97
2022-08-20T19:28:32.066Z,42.71
2022-08-20T19:30:39.767Z,42.79
2022-08-20T19:32:53.763Z,43.38
2022-08-20T19:35:06.606Z,43.15
2022-08-20T19:37:34.919Z,42.94
2022-08-20T19:39:43.381Z,43.03
2022-08-20T19:41:49.120Z,43.15
2022-08-20T19:43:54.289Z,43.12
2022-08-20T19:45:57.328Z,43.04
2022-08-20T19:48:18.508Z,43.42
2022-08-20T19:50:38.185Z,43.49
2022-08-20T19:53:02.845Z,43.72
2022-08-20T19:55:21.935Z,43.89
2022-08-20T19:57:26.254Z,44.13
2022-08-20T19:59:29.226Z,44.03
2022-08-20T20:01:33.786Z,44.10
2022-08-20T20:03:40.403Z,44.27
2022-08-20T20:06:17.028Z,44.48
2022-08-20T20:08:22.608Z,44.08
2022-08-20T20:10:35.266Z,44.05
2022-08-20T20:12:39.642Z,44.28
2022-08-20T20:14:44.388Z,44.34
2022-08-20T20:16:50.724Z,44.65
2022-08-20T20:19:15.730Z,45.09
2022-08-20T20:21:46.933Z,45.52
2022-08-20T20:24:01.885Z,46.01
2022-08-20T20:26:08.732Z,45.69
2022-08-20T20:28:19.884Z,46.38
2022-08-20T20:30:31.090Z,46.40
2022-08-20T20:32:34.189Z,46.60
2022-08-20T20:34:55.041Z,46.64
2022-08-20T20:37:11.537Z,47.34
2022-08-20T20:39:33.604Z,46.98
2022-08-20T20:41:37.823Z,46.56
2022-08-20T20:43:43.448Z,46.77
2022-08-20T20:45:56.295Z,46.83
2022-08-20T20:47:59.328Z,47.12
2022-08-20T20:50:06.472Z,47.17
2022-08-20T20:52:28.847Z,47.71
2022-08-20T20:54:44.367Z,47.57
2022-08-20T20:56:59.020Z,47.05
2022-08-20T20:59:06.077Z,47.49
2022-08-20T21:01:09.596Z,47.14
2022-08-20T21:03:12.732Z,46.82
2022-08-20T21:05:17.569Z,47.06
2022-08-20T21:07:23.166Z,46.98
2022-08-20T21:09:26.894Z,46.86
2022-08-20T21:11:30.538Z,47.23
2022-08-20T21:13:33.172Z,47.37
2022-08-20T21:15:38.149Z,47.35
2022-08-20T21:17:41.335Z,47.56
2022-08-20T21:19:45.377Z,47.92
2022-08-20T21:21:48.193Z,47.74
2022-08-20T21:23:50.803Z,47.84
2022-08-20T21:25:53.469Z,47.27
2022-08-20T21:27:56.648Z,47.59
2022-08-20T21:29:59.395Z,47.72
2022-08-20T21:32:02.027Z,47.65
2022-08-20T21:34:04.723Z,48.05
2022-08-20T21:36:07.670Z,47.89
2022-08-20T21:38:10.553Z,48.12
2022-08-20T21:40:21.568Z,48.26
2022-08-20T21:42:29.098Z,48.65
2022-08-20T21:44:33.671Z,48.89
2022-08-20T21:46:36.425Z,48.95
2022-08-20T21:48:39.248Z,48.84
2022-08-20T21:50:42.251Z,49.10
2022-08-20T21:52:51.741Z,49.18
2022-08-20T21:55:02.441Z,48.99
2022-08-20T21:57:18.099Z,48.58
2022-08-20T21:59:22.894Z,49.06
2022-08-20T22:01:25.674Z,48.40
2022-08-20T22:03:31.744Z,48.13
2022-08-20T22:05:34.919Z,47.83
2022-08-20T22:07:37.756Z,48.33
2022-08-20T22:09:40.465Z,48.34
2022-08-20T22:11:43.382Z,48.23
2022-08-20T22:13:46.415Z,48.42
2022-08-20T22:15:49.104Z,48.58
2022-08-20T22:17:52.010Z,48.86
2022-08-20T22:19:54.673Z,49.00
2022-08-20T22:21:57.539Z,49.16
2022-08-20T22:24:03.841Z,49.29
2022-08-20T22:26:08.007Z,49.40
2022-08-20T22:28:10.746Z,49.58
2022-08-20T22:30:13.694Z,49.83
2022-08-20T22:32:16.389Z,49.46
2022-08-20T22:34:21.609Z,49.81
2022-08-20T22:36:25.694Z,50.30
2022-08-20T22:38:28.670Z,50.01
2022-08-20T22:40:31.385Z,49.96
2022-08-20T22:42:34.100Z,49.12
2022-08-20T22:44:36.725Z,48.57
2022-08-20T22:46:47.057Z,48.59
2022-08-20T22:48:50.565Z,48.42
2022-08-20T22:50:53.870Z,48.88
2022-08-20T22:52:57.010Z,48.95
2022-08-20T22:54:59.760Z,49.10
2022-08-20T22:57:02.431Z,49.17
2022-08-20T22:59:06.823Z,48.93
2022-08-20T23:01:09.963Z,48.85
2022-08-20T23:03:12.929Z,49.01
2022-08-20T23:05:21.602Z,49.06
2022-08-20T23:07:24.392Z,48.71
2022-08-20T23:09:27.800Z,48.87
2022-08-20T23:11:32.882Z,48.73
2022-08-20T23:13:35.667Z,48.94
2022-08-20T23:15:41.507Z,48.98
2022-08-20T23:17:48.601Z,48.90
2022-08-20T23:19:51.760Z,49.24
2022-08-20T23:21:54.417Z,49.36
2022-08-20T23:23:57.136Z,49.11
2022-08-20T23:26:00.966Z,49.29
2022-08-20T23:28:04.419Z,49.54
2022-08-20T23:30:07.954Z,49.33
2022-08-20T23:32:10.760Z,49.24
2022-08-20T23:34:13.489Z,49.36
2022-08-20T23:36:19.723Z,49.05
2022-08-20T23:38:22.356Z,48.98
2022-08-20T23:40:28.408Z,49.21
2022-08-20T23:42:31.307Z,48.80
2022-08-20T23:44:34.008Z,48.91
2022-08-20T23:46:38.118Z,49.18
2022-08-20T23:48:40.809Z,48.83
2022-08-20T23:50:43.588Z,48.71
2022-08-20T23:52:46.421Z,48.78
2022-08-20T23:54:49.195Z,49.12
2022-08-20T23:56:51.944Z,48.89
2022-08-20T23:58:59.692Z,49.07
